Aviation Digital Data Service (ADDS)

Output produced by METARs form (2256 UTC 23 May 2022)
found at http://www.aviationweather.gov/metar/data/
 
DAUA 232200Z 03007KT CAVOK 32/M01 Q1011
TAF DAUA 231700Z 2318/2418 04012KT CAVOK 
     BECMG 2319/2321 VRB02KT 
     BECMG 2405/2407 15012KT
       
DABB 232230Z 30005KT CAVOK 19/15 Q1010
TAF DABB 231700Z 2318/2418 07015KT 9999 FEW026 
     BECMG 2320/2322 26007KT
       
DABT 232200Z 00000KT 9999 SCT023 21/M01 Q1015
TAF DABT 231700Z 2318/2418 28008KT 9999 SCT023 
     PROB30 
     TEMPO 2318/2321 28015G25KT 5000 -TSRA FEW030CB 
     BECMG 2407/2410 22014KT 
     PROB30 2410/2415 22024KT 5000 DRSA
       
DAOR 232200Z 06012KT 6000 SCT033 SCT100 28/06 Q1017
TAF DAOR 232000Z 2321/2406 VRB02KT 7000 SCT033 SCT100 
     PROB30 2321/2400 4000 HZ
       
DAAE 232200Z 08004KT 9999 TS FEW020 FEW023CB 19/16 Q1010
TAF AMD DAAE 232047Z 2320/2418 12008KT 9999 FEW020 SCT090 
     TEMPO 2320/2324 FEW023CB 
     PROB30 
     TEMPO 2320/2323 5000 -TSRA 
     PROB30 
     TEMPO 2321/2403 3000 BR BKN010
       
DAUB 232200Z 07004KT 9999 FEW040 30/M05 Q1009
TAF AMD DAUB 231920Z 2319/2418 VRB02KT 9999 FEW040 SCT200 
     TEMPO 2319/2323 FEW033CB 
     PROB30 
     TEMPO 2319/2322 5000 -TSRA 
     BECMG 2409/2412 10010KT
       
DATM 231800Z 27008KT 3000 SA NSC 39/// Q1007
TAF DATM 231700Z 2318/2403 28008KT 4000 SA NSC 
     BECMG 2318/2320 6000 NSW
       
DAAD 231800Z 11015KT 4000 TS DRSA SCT026 FEW030CB 31/08 Q1011
TAF DAAD 231700Z 2318/2403 08006KT 3000 DRSA SCT036 FEW030 
     TEMPO 2318/2321 TS FEW036CB 
     BECMG 2320/2321 6000 NSW
       
DAOI 232200Z 27003KT CAVOK 24/09 Q1011
TAF DAOI 231700Z 2318/2418 24010KT CAVOK 
     BECMG 2322/2402 VRB02KT 
     BECMG 2412/2415 26012KT
       
DABC 232230Z 17004KT CAVOK 19/10 Q1014
TAF DABC 231700Z 2318/2418 05009KT 9999 SCT023 SCT200 
     TEMPO 2318/2322 FEW033TCU 
     PROB30 
     TEMPO 2318/2321 5000 -TSRA FEW030CB
       
DAAG 232230Z 00000KT CAVOK 20/15 Q1010
TAF DAAG 231700Z 2318/2418 34010KT CAVOK 
     BECMG 2318/2319 VRB02KT 
     BECMG 2410/2412 04010KT
       
DAAJ 232200Z 30004KT 5000 BKN046 27/05 Q1018
TAF DAAJ 231700Z 2318/2418 26010KT 6000 BKN046 
     TEMPO 2318/2403 FEW046CB 
     PROB40 
     TEMPO 2318/2323 24015G25KT 2000 DRSA FEW046CB 
     BECMG 2319/2321 36010KT 
     PROB40 
     TEMPO 2320/2406 3000 HZ 
     BECMG 2408/2410 28008KT
       
DAUE 232200Z 00000KT CAVOK 24/03 Q1014
DAUO 232200Z 20005KT 170V230 CAVOK 29/// Q1009
TAF DAUO 232000Z 2321/2406 24006KT CAVOK
       
DAUG 232200Z 22004KT 180V250 CAVOK 29/// Q1013
TAF DAUG 231700Z 2318/2418 22006KT CAVOK
       
DAUH 232230Z 10002KT CAVOK 25/00 Q1011
TAF DAUH 231700Z 2318/2418 VRB02KT CAVOK
       
DAAP 232200Z 21004KT 6000 NSC 30/04 Q1012
TAF DAAP 232000Z 2321/2406 34012KT 6000 FEW040 
     PROB40 
     TEMPO 2321/2400 VRB15G30KT 1000 BLSA FEW036CB
       
DAUZ 232200Z 36009KT CAVOK 28/// Q1013
TAF DAUZ 231700Z 2318/2418 02010KT CAVOK 
     BECMG 2323/2401 VRB02KT
       
DAUI 232200Z 34006KT CAVOK 29/// Q1010
TAF DAUI 231700Z 2318/2418 08010KT CAVOK
       
DAAV 232240Z 29004KT 9999 FEW023 21/15 Q1010
TAF AMD DAAV 232047Z 2320/2418 14007KT 9999 FEW023 
     TEMPO 2320/2324 FEW026CB 
     PROB30 
     TEMPO 2320/2323 5000 -TSRA
       
DAUL 232200Z 07008KT 8000 SCT040 27/04 Q1013
TAF DAUL 232000Z 2321/2406 06008KT 9999 SCT040 
     TEMPO 2321/2403 FEW033CB 
     PROB30 
     TEMPO 2321/2323 VRB15G30KT 3000 DRSA FEW033CB
       
DAOV 232200Z 15004KT 120V180 9999 FEW026 19/07 Q1013
TAF DAOV 232000Z 2321/2406 VRB02KT 9999 FEW026
       
DAAY 232200Z 20010KT 5000 FEW026CB BKN030 22/08 Q1019
TAF DAAY 232000Z 2321/2406 24010KT 5000 FEW026CB BKN030 
     TEMPO 2321/2324 22015G35KT 4000 TSRA FEW026CB 
     PROB40 
     TEMPO 2321/2324 3000 -TSSHRA FEW023CB
       
DAOO 232230Z 18005KT 150V210 CAVOK 22/13 Q1011
TAF DAOO 231700Z 2318/2418 34011KT CAVOK 
     BECMG 2320/2322 24010KT 
     BECMG 2400/2403 VRB02KT 
     BECMG 2408/2411 21010KT 
     BECMG 2411/2414 27015KT
       
DAOL 232200Z 23006KT CAVOK 22/12 Q1012
DAUU 232200Z 17004KT CAVOK 26/// Q1010
TAF DAUU 232000Z 2321/2406 VRB02KT CAVOK
       
DAAS 232200Z 02003KT 8000 FEW026CB SCT030 22/M01 Q1015
TAF DAAS 231700Z 2318/2418 24008KT 9999 SCT030 
     TEMPO 2318/2322 FEW033TCU 
     PROB30 
     TEMPO 2318/2321 5000 -TSRA FEW030CB 
     BECMG 2409/2412 22010KT
       
DAAT 232230Z 03004KT 9000 SCT046TCU 23/03 Q1020
TAF DAAT 231700Z 2318/2418 08010KT 7000 FEW046 SCT046 
     TEMPO 2318/2323 FEW046CB SCT046TCU 
     PROB40 
     TEMPO 2318/2323 VRB15G25KT -TSRA FEW040CB 
     PROB30 
     TEMPO 2318/2323 VRB15G30KT 2000 DRSA FEW046CB 
     PROB30 2321/2406 3000 HZ 
     BECMG 2408/2410 28010KT
       
DABS 232200Z 25003KT 9999 FEW033 24/07 Q1015
TAF DABS 231700Z 2318/2418 35008KT 9999 SCT033 
     TEMPO 2318/2322 FEW033TCU 
     PROB30 
     TEMPO 2318/2321 5000 -TSRA FEW030CB 
     BECMG 2408/2410 22012KT 
     PROB30 2410/2415 22022KT 5000 DRSA
       
DAOB 232200Z 20004KT CAVOK 15/07 Q1016
TAF DAOB 231700Z 2318/2418 30010KT 9999 FEW046 
     PROB30 
     TEMPO 2318/2323 FEW030CB 
     BECMG 2320/2323 VRB02KT
       
DAFH 231800Z 22008KT CAVOK 32/M02 Q1013
TAF DAFH 231700Z 2318/2403 22012KT 9999 FEW040 
     PROB30 2318/2321 FEW033CB
       
DAUT 232200Z 10003KT CAVOK 30/M00 Q1011
TAF DAUT 232000Z 2321/2406 08006KT CAVOK
       
DAOF 232200Z 14014KT 5000 FEW046 SCT100 33/05 Q1012
TAF COR DAOF 232150Z 2321/2406 28008KT 7000 FEW046 SCT100
       
DAON 232230Z 15004KT CAVOK 19/10 Q1012
TAF DAON 231700Z 2318/2418 01010KT 9999 FEW026 
     BECMG 2321/2324 VRB02KT CAVOK 
     BECMG 2411/2414 32010KT
       
DAUK 232200Z 16006KT CAVOK 28/// Q1010
TAF DAUK 232000Z 2321/2406 22006KT CAVOK